Time,TemperatureF,DewpointF,PressureIn,WindDirection,WindDirectionDegrees,WindSpeedMPH,WindSpeedGustMPH,Humidity,HourlyPrecipIn,Conditions,Clouds,dailyrainin,SoftwareType,DateUTC
2013-03-13 00:00:00,42.2,38.6,29.80,NW,317,4.6,4.6,87,0.00,CLR,,1.39,WeatherDisplay:10.37,2013-03-13 04:00:00,
2013-03-13 00:05:00,42.2,38.6,29.81,NW,311,8.1,8.1,87,0.00,RA,,0.00,WeatherDisplay:10.37,2013-03-13 04:05:00,
2013-03-13 00:10:00,42.3,38.7,29.81,NW,304,5.8,5.8,87,0.00,-RA,,0.00,WeatherDisplay:10.37,2013-03-13 04:10:00,
2013-03-13 00:15:00,42.4,38.5,29.81,WNW,293,6.9,6.9,86,0.00,CLR,,0.00,WeatherDisplay:10.37,2013-03-13 04:15:00,
2013-03-13 00:20:00,42.5,38.6,29.81,North,360,4.6,4.6,86,0.00,OVC,,0.00,WeatherDisplay:10.37,2013-03-13 04:20:00,
2013-03-13 00:25:00,42.5,38.9,29.81,North,355,1.2,1.2,87,0.00,CLR,,0.00,WeatherDisplay:10.37,2013-03-13 04:25:00,
2013-03-13 00:30:00,42.4,38.8,29.81,East,83,2.0,0.0,87,0.00,OVC,,0.00,WeatherDisplay:10.37,2013-03-13 04:30:00,
2013-03-13 00:35:00,42.3,38.7,29.81,East,83,1.0,1.0,87,0.00,CLR,,0.00,WeatherDisplay:10.37,2013-03-13 04:35:00,
2013-03-13 00:40:00,42.1,38.5,29.81,NE,54,0.0,0.0,87,0.00,OVC,,0.00,WeatherDisplay:10.37,2013-03-13 04:40:00,
2013-03-13 00:45:00,41.9,38.6,29.82,NNW,336,3.5,3.5,88,0.00,CLR,,0.00,WeatherDisplay:10.37,2013-03-13 04:45:00,
2013-03-13 00:50:00,41.7,38.4,29.82,NW,314,2.3,2.3,88,0.00,OVC,,0.00,WeatherDisplay:10.37,2013-03-13 04:50:00,
2013-03-13 00:55:00,41.4,38.1,29.82,NW,314,2.3,2.3,88,0.00,CLR,,0.00,WeatherDisplay:10.37,2013-03-13 04:55:00,
2013-03-13 01:00:00,41.1,38.1,29.82,NW,314,3.5,3.5,89,0.00,OVC,,0.00,WeatherDisplay:10.37,2013-03-13 05:00:00,
2013-03-13 01:05:00,41.0,38.3,29.82,NW,323,1.2,1.2,90,0.00,BKN,,0.00,WeatherDisplay:10.37,2013-03-13 05:05:00,
2013-03-13 01:10:00,40.8,38.1,29.82,NW,323,1.2,1.2,90,0.00,OVC,,0.00,WeatherDisplay:10.37,2013-03-13 05:10:00,
2013-03-13 01:15:00,40.5,37.8,29.83,NW,323,2.3,2.3,90,0.00,BKN,,0.00,WeatherDisplay:10.37,2013-03-13 05:15:00,
2013-03-13 01:20:00,40.2,37.8,29.83,NW,323,2.3,2.3,91,0.00,OVC,,0.00,WeatherDisplay:10.37,2013-03-13 05:20:00,
2013-03-13 01:25:00,40.1,37.7,29.83,NW,323,1.0,1.0,91,0.00,BKN,,0.00,WeatherDisplay:10.37,2013-03-13 05:25:00,
2013-03-13 01:30:00,39.9,37.8,29.83,NW,323,0.0,0.0,92,0.00,OVC,,0.00,WeatherDisplay:10.37,2013-03-13 05:30:00,
2013-03-13 01:35:00,39.8,37.7,29.83,NW,323,0.0,0.0,92,0.00,BKN,,0.00,WeatherDisplay:10.37,2013-03-13 05:35:00,
2013-03-13 01:40:00,39.9,37.8,29.83,NW,323,2.3,2.3,92,0.00,OVC,,0.00,WeatherDisplay:10.37,2013-03-13 05:40:00,
2013-03-13 01:45:00,39.9,38.0,29.83,NW,323,2.3,2.3,93,0.00,BKN,,0.00,WeatherDisplay:10.37,2013-03-13 05:45:00,
2013-03-13 01:50:00,40.0,38.1,29.83,WNW,300,3.5,3.5,93,0.00,OVC,,0.00,WeatherDisplay:10.37,2013-03-13 05:50:00,
2013-03-13 01:55:00,40.1,38.0,29.83,NNE,19,6.9,6.9,92,0.00,BKN,,0.00,WeatherDisplay:10.37,2013-03-13 05:55:00,
2013-03-13 02:00:00,40.2,38.1,29.83,WNW,295,4.0,4.0,92,0.00,OVC,,0.00,WeatherDisplay:10.37,2013-03-13 06:00:00,
2013-03-13 02:05:00,40.2,37.8,29.83,North,360,5.8,5.8,91,0.00,FEW,,0.00,WeatherDisplay:10.37,2013-03-13 06:05:00,
2013-03-13 02:10:00,40.2,37.8,29.83,WNW,301,3.5,3.5,91,0.00,OVC,,0.00,WeatherDisplay:10.37,2013-03-13 06:10:00,
2013-03-13 02:15:00,40.2,37.8,29.83,North,355,1.2,1.2,91,0.00,FEW,,0.00,WeatherDisplay:10.37,2013-03-13 06:15:00,
2013-03-13 02:20:00,40.0,37.6,29.83,NNE,19,3.5,3.8,91,0.00,OVC,,0.00,WeatherDisplay:10.37,2013-03-13 06:20:00,
2013-03-13 02:25:00,39.9,37.2,29.83,NNE,13,3.5,3.5,90,0.00,FEW,,0.00,WeatherDisplay:10.37,2013-03-13 06:25:00,
2013-03-13 02:30:00,39.8,37.1,29.82,NNE,15,2.3,2.3,90,0.00,OVC,,0.00,WeatherDisplay:10.37,2013-03-13 06:30:00,
2013-03-13 02:35:00,39.5,36.8,29.83,NNW,345,3.5,3.5,90,0.00,FEW,,0.00,WeatherDisplay:10.37,2013-03-13 06:35:00,
2013-03-13 02:40:00,39.3,36.9,29.83,NNW,346,2.3,2.3,91,0.00,OVC,,0.00,WeatherDisplay:10.37,2013-03-13 06:40:00,
2013-03-13 02:45:00,39.1,36.7,29.83,NW,316,0.0,0.0,91,0.00,FEW,,0.00,WeatherDisplay:10.37,2013-03-13 06:45:00,
2013-03-13 02:50:00,38.9,36.5,29.83,NW,316,0.0,0.0,91,0.00,OVC,,0.00,WeatherDisplay:10.37,2013-03-13 06:50:00,
2013-03-13 02:55:00,38.5,36.1,29.83,NW,316,0.0,0.0,91,0.00,FEW,,0.00,WeatherDisplay:10.37,2013-03-13 06:55:00,
2013-03-13 03:00:00,38.2,35.8,29.83,NW,316,0.0,0.0,91,0.00,OVC,,0.00,WeatherDisplay:10.37,2013-03-13 07:00:00,
2013-03-13 03:05:00,37.9,35.5,29.83,NW,316,0.0,0.0,91,0.00,FEW,,0.00,WeatherDisplay:10.37,2013-03-13 07:05:00,
2013-03-13 03:10:00,37.6,35.5,29.83,NW,316,0.0,0.0,92,0.00,OVC,,0.00,WeatherDisplay:10.37,2013-03-13 07:10:00,
2013-03-13 03:16:00,37.3,35.2,29.83,NW,315,0.0,0.0,92,0.00,FEW,,0.00,WeatherDisplay:10.37,2013-03-13 07:16:00,
2013-03-13 03:21:00,37.0,34.9,29.83,NW,316,0.0,0.0,92,0.00,OVC,,0.00,WeatherDisplay:10.37,2013-03-13 07:21:00,
2013-03-13 03:26:00,36.7,34.6,29.83,NW,316,0.0,0.0,92,0.00,FEW,,0.00,WeatherDisplay:10.37,2013-03-13 07:26:00,
2013-03-13 03:31:00,36.4,34.3,29.83,NW,316,0.0,0.0,92,0.00,FEW,,0.00,WeatherDisplay:10.37,2013-03-13 07:31:00,
2013-03-13 03:36:00,36.2,34.4,29.83,NW,315,0.0,0.0,93,0.00,FEW,,0.00,WeatherDisplay:10.37,2013-03-13 07:36:00,
2013-03-13 03:41:00,35.9,34.1,29.83,NW,316,0.0,0.0,93,0.00,FEW,,0.00,WeatherDisplay:10.37,2013-03-13 07:41:00,
2013-03-13 03:46:00,35.7,33.9,29.83,NW,315,0.0,0.0,93,0.00,FEW,,0.00,WeatherDisplay:10.37,2013-03-13 07:46:00,
2013-03-13 03:51:00,35.3,33.5,29.83,NW,316,0.0,0.0,93,0.00,FEW,,0.00,WeatherDisplay:10.37,2013-03-13 07:51:00,
2013-03-13 03:56:00,35.1,33.3,29.83,NW,315,0.0,0.0,93,0.00,FEW,,0.00,WeatherDisplay:10.37,2013-03-13 07:56:00,
2013-03-13 04:01:00,34.8,33.2,29.83,NW,316,0.0,0.0,94,0.00,FEW,,0.00,WeatherDisplay:10.37,2013-03-13 08:01:00,
2013-03-13 04:08:00,34.4,32.9,29.84,NW,315,0.0,0.0,94,0.00,CLR,,0.00,WeatherDisplay:10.37,2013-03-13 08:08:00,
2013-03-13 04:13:00,34.3,32.8,29.84,NW,316,0.0,0.0,94,0.00,CLR,,0.00,WeatherDisplay:10.37,2013-03-13 08:13:00,
2013-03-13 04:18:00,34.1,32.6,29.83,NW,316,0.0,0.0,94,0.00,CLR,,0.00,WeatherDisplay:10.37,2013-03-13 08:18:00,
2013-03-13 04:23:00,33.9,32.4,29.83,NW,316,0.0,0.0,94,0.00,CLR,,0.00,WeatherDisplay:10.37,2013-03-13 08:23:00,
2013-03-13 04:28:00,33.7,32.2,29.83,NW,316,0.0,0.0,94,0.00,CLR,,0.00,WeatherDisplay:10.37,2013-03-13 08:28:00,
2013-03-13 04:33:00,33.5,32.2,29.84,NW,316,0.0,0.0,95,0.00,CLR,,0.00,WeatherDisplay:10.37,2013-03-13 08:33:00,
2013-03-13 04:38:00,33.3,32.0,29.84,NW,316,0.0,0.0,95,0.00,CLR,,0.00,WeatherDisplay:10.37,2013-03-13 08:38:00,
2013-03-13 04:43:00,33.2,31.9,29.84,NW,316,0.0,0.0,95,0.00,CLR,,0.00,WeatherDisplay:10.37,2013-03-13 08:43:00,
2013-03-13 04:48:00,33.0,31.7,29.84,NW,316,0.0,0.0,95,0.00,CLR,,0.00,WeatherDisplay:10.37,2013-03-13 08:48:00,
2013-03-13 04:53:00,32.9,31.6,29.84,NW,316,0.0,0.0,95,0.00,CLR,,0.00,WeatherDisplay:10.37,2013-03-13 08:53:00,
2013-03-13 04:58:00,32.9,31.6,29.84,NW,316,0.0,0.0,95,0.00,CLR,,0.00,WeatherDisplay:10.37,2013-03-13 08:58:00,
2013-03-13 05:03:00,32.8,31.5,29.84,NW,316,0.0,0.0,95,0.00,CLR,,0.00,WeatherDisplay:10.37,2013-03-13 09:03:00,
2013-03-13 05:08:00,32.7,31.4,29.84,NW,316,2.3,0.0,95,0.00,CLR,,0.00,WeatherDisplay:10.37,2013-03-13 09:08:00,
2013-03-13 05:13:00,32.7,31.7,29.84,NW,316,0.0,0.0,96,0.00,CLR,,0.00,WeatherDisplay:10.37,2013-03-13 09:13:00,
2013-03-13 05:18:00,32.6,31.6,29.85,NW,316,1.2,1.2,96,0.00,CLR,,0.00,WeatherDisplay:10.37,2013-03-13 09:18:00,
2013-03-13 05:23:00,32.6,31.6,29.84,NW,316,0.0,0.0,96,0.00,CLR,,0.00,WeatherDisplay:10.37,2013-03-13 09:23:00,
2013-03-13 05:28:00,32.5,31.5,29.85,NW,316,0.0,0.0,96,0.00,CLR,,0.00,WeatherDisplay:10.37,2013-03-13 09:28:00,
2013-03-13 05:33:00,32.5,31.5,29.85,NW,316,1.2,0.0,96,0.00,CLR,,0.00,WeatherDisplay:10.37,2013-03-13 09:33:00,
2013-03-13 05:38:00,32.5,31.5,29.85,NW,316,0.0,0.0,96,0.00,CLR,,0.00,WeatherDisplay:10.37,2013-03-13 09:38:00,
2013-03-13 05:43:00,32.5,31.5,29.85,NW,316,0.0,0.0,96,0.00,CLR,,0.00,WeatherDisplay:10.37,2013-03-13 09:43:00,
2013-03-13 05:48:00,32.5,31.5,29.85,NW,315,0.0,0.0,96,0.00,CLR,,0.00,WeatherDisplay:10.37,2013-03-13 09:48:00,
2013-03-13 05:53:00,32.4,31.6,29.85,NW,315,0.0,0.0,97,0.00,CLR,,0.00,WeatherDisplay:10.37,2013-03-13 09:53:00,
2013-03-13 05:58:00,32.4,31.4,29.85,NW,316,0.0,0.0,96,0.00,CLR,,0.00,WeatherDisplay:10.37,2013-03-13 09:58:00,
2013-03-13 06:04:00,32.3,31.3,29.85,NW,316,0.0,0.0,96,0.00,BKN,,0.00,WeatherDisplay:10.37,2013-03-13 10:04:00,
2013-03-13 06:09:00,32.1,31.1,29.86,NW,315,1.2,1.2,96,0.00,BKN,,0.00,WeatherDisplay:10.37,2013-03-13 10:09:00,
2013-03-13 06:14:00,32.0,31.2,29.85,NW,316,1.2,1.2,97,0.00,BKN,,0.00,WeatherDisplay:10.37,2013-03-13 10:14:00,
2013-03-13 06:19:00,32.0,31.2,29.86,NW,315,0.0,0.0,97,0.00,BKN,,0.00,WeatherDisplay:10.37,2013-03-13 10:19:00,
2013-03-13 06:24:00,32.0,31.2,29.85,NW,316,0.0,0.0,97,0.00,BKN,,0.00,WeatherDisplay:10.37,2013-03-13 10:24:00,
2013-03-13 06:29:00,31.9,31.1,29.85,NW,316,0.0,0.0,97,0.00,BKN,,0.00,WeatherDisplay:10.37,2013-03-13 10:29:00,
2013-03-13 06:34:00,31.8,31.0,29.85,NW,316,0.0,0.0,97,0.00,BKN,,0.00,WeatherDisplay:10.37,2013-03-13 10:34:00,
2013-03-13 06:39:00,31.7,30.9,29.85,NW,316,0.0,0.0,97,0.00,BKN,,0.00,WeatherDisplay:10.37,2013-03-13 10:39:00,
2013-03-13 06:44:00,31.6,30.8,29.85,NW,316,0.0,0.0,97,0.00,BKN,,0.00,WeatherDisplay:10.37,2013-03-13 10:44:00,
2013-03-13 06:49:00,31.6,30.8,29.86,NW,316,0.0,0.0,97,0.00,BKN,,0.00,WeatherDisplay:10.37,2013-03-13 10:49:00,
2013-03-13 06:54:00,31.5,30.7,29.86,NW,316,0.0,0.0,97,0.00,BKN,,0.00,WeatherDisplay:10.37,2013-03-13 10:54:00,
2013-03-13 06:59:00,31.5,30.7,29.86,NW,315,0.0,0.0,97,0.00,BKN,,0.00,WeatherDisplay:10.37,2013-03-13 10:59:00,
2013-03-13 07:04:00,31.5,30.7,29.86,NW,316,1.2,1.2,97,0.00,CLR,,0.00,WeatherDisplay:10.37,2013-03-13 11:04:00,
2013-03-13 07:09:00,31.5,30.7,29.86,NW,316,0.0,0.0,97,0.00,CLR,,0.00,WeatherDisplay:10.37,2013-03-13 11:09:00,
2013-03-13 07:14:00,31.5,30.7,29.86,NW,316,0.0,0.0,97,0.00,CLR,,0.00,WeatherDisplay:10.37,2013-03-13 11:14:00,
2013-03-13 07:19:00,31.5,30.7,29.86,NW,316,0.0,0.0,97,0.00,CLR,,0.00,WeatherDisplay:10.37,2013-03-13 11:19:00,
2013-03-13 07:24:00,31.5,30.7,29.86,NW,316,0.0,0.0,97,0.00,CLR,,0.00,WeatherDisplay:10.37,2013-03-13 11:24:00,
2013-03-13 07:29:00,31.5,30.7,29.86,NW,316,0.0,0.0,97,0.00,CLR,,0.00,WeatherDisplay:10.37,2013-03-13 11:29:00,
2013-03-13 07:34:00,31.6,30.8,29.86,NW,316,0.0,0.0,97,0.00,CLR,,0.00,WeatherDisplay:10.37,2013-03-13 11:34:00,
2013-03-13 07:39:00,31.7,30.9,29.87,NW,316,0.0,0.0,97,0.00,CLR,,0.00,WeatherDisplay:10.37,2013-03-13 11:39:00,
2013-03-13 07:44:00,31.8,31.0,29.86,NW,316,0.0,0.0,97,0.00,CLR,,0.00,WeatherDisplay:10.37,2013-03-13 11:44:00,
2013-03-13 07:49:00,32.0,31.5,29.87,NW,316,0.0,0.0,98,0.00,CLR,,0.00,WeatherDisplay:10.37,2013-03-13 11:49:00,
2013-03-13 07:54:00,32.2,31.7,29.87,NW,316,0.0,0.0,98,0.00,CLR,,0.00,WeatherDisplay:10.37,2013-03-13 11:54:00,
2013-03-13 07:59:00,32.5,32.0,29.87,NW,316,0.0,0.0,98,0.00,CLR,,0.00,WeatherDisplay:10.37,2013-03-13 11:59:00,
2013-03-13 08:04:00,32.7,32.2,29.87,NW,315,0.0,0.0,98,0.00,CLR,,0.00,WeatherDisplay:10.37,2013-03-13 12:04:00,
2013-03-13 08:09:00,32.9,32.4,29.87,NW,316,0.0,0.0,98,0.00,CLR,,0.00,WeatherDisplay:10.37,2013-03-13 12:09:00,
2013-03-13 08:14:00,33.4,32.9,29.87,NW,316,0.0,0.0,98,0.00,CLR,,0.00,WeatherDisplay:10.37,2013-03-13 12:14:00,
2013-03-13 08:19:00,33.9,33.4,29.87,NW,316,0.0,0.0,98,0.00,CLR,,0.00,WeatherDisplay:10.37,2013-03-13 12:19:00,
2013-03-13 08:24:00,34.2,33.7,29.87,NW,316,0.0,0.0,98,0.00,CLR,,0.00,WeatherDisplay:10.37,2013-03-13 12:24:00,
2013-03-13 08:29:00,34.4,33.9,29.87,NW,315,2.3,2.3,98,0.00,CLR,,0.00,WeatherDisplay:10.37,2013-03-13 12:29:00,
2013-03-13 08:34:00,34.9,34.4,29.87,NW,316,3.5,3.5,98,0.00,CLR,,0.00,WeatherDisplay:10.37,2013-03-13 12:34:00,
2013-03-13 08:39:00,35.4,34.9,29.87,NW,316,0.0,0.4,98,0.00,CLR,,0.00,WeatherDisplay:10.37,2013-03-13 12:39:00,
2013-03-13 08:44:00,35.8,35.3,29.87,NW,316,1.2,0.0,98,0.00,CLR,,0.00,WeatherDisplay:10.37,2013-03-13 12:44:00,
2013-03-13 08:49:00,36.1,35.6,29.87,NW,314,1.2,0.0,98,0.00,CLR,,0.00,WeatherDisplay:10.37,2013-03-13 12:49:00,
2013-03-13 08:54:00,36.5,36.0,29.87,WNW,302,4.6,4.6,98,0.00,CLR,,0.00,WeatherDisplay:10.37,2013-03-13 12:54:00,
2013-03-13 08:59:00,37.0,36.2,29.87,West,265,3.5,3.5,97,0.00,CLR,,0.00,WeatherDisplay:10.37,2013-03-13 12:59:00,
2013-03-13 09:04:00,37.6,36.6,29.87,WSW,258,3.5,3.5,96,0.00,CLR,,0.00,WeatherDisplay:10.37,2013-03-13 13:04:00,
2013-03-13 09:09:00,38.1,36.3,29.87,WNW,303,4.0,4.0,93,0.00,CLR,,0.00,WeatherDisplay:10.37,2013-03-13 13:09:00,
2013-03-13 09:14:00,38.5,36.1,29.87,NW,314,4.6,4.6,91,0.00,CLR,,0.00,WeatherDisplay:10.37,2013-03-13 13:14:00,
2013-03-13 09:19:00,38.8,36.1,29.87,West,267,3.5,3.5,90,0.00,CLR,,0.00,WeatherDisplay:10.37,2013-03-13 13:19:00,
2013-03-13 09:24:00,39.3,36.3,29.87,West,267,1.2,1.2,89,0.00,CLR,,0.00,WeatherDisplay:10.37,2013-03-13 13:24:00,
2013-03-13 09:29:00,39.8,36.2,29.87,West,260,6.9,6.9,87,0.00,CLR,,0.00,WeatherDisplay:10.37,2013-03-13 13:29:00,
2013-03-13 09:34:00,40.2,36.3,29.87,West,259,3.5,3.5,86,0.00,CLR,,0.00,WeatherDisplay:10.37,2013-03-13 13:34:00,
2013-03-13 09:39:00,40.6,36.4,29.87,NW,311,5.8,5.8,85,0.00,CLR,,0.00,WeatherDisplay:10.37,2013-03-13 13:39:00,
2013-03-13 09:44:00,40.8,35.7,29.87,WSW,239,3.5,3.5,82,0.00,CLR,,0.00,WeatherDisplay:10.37,2013-03-13 13:44:00,
2013-03-13 09:49:00,40.9,35.5,29.86,NW,306,8.1,8.1,81,0.00,CLR,,0.00,WeatherDisplay:10.37,2013-03-13 13:49:00,
2013-03-13 09:54:00,41.0,35.6,29.87,WNW,295,3.5,3.5,81,0.00,CLR,,0.00,WeatherDisplay:10.37,2013-03-13 13:54:00,
2013-03-13 09:59:00,41.3,35.6,29.87,WSW,246,3.5,3.5,80,0.00,CLR,,0.00,WeatherDisplay:10.37,2013-03-13 13:59:00,
2013-03-13 10:04:00,41.5,35.5,29.87,West,263,5.8,5.8,79,0.00,CLR,,0.00,WeatherDisplay:10.37,2013-03-13 14:04:00,
2013-03-13 10:09:00,41.6,35.2,29.86,West,280,3.5,3.5,78,0.00,CLR,,0.00,WeatherDisplay:10.37,2013-03-13 14:09:00,
2013-03-13 10:14:00,41.9,35.5,29.86,WSW,250,3.5,3.5,78,0.00,CLR,,0.00,WeatherDisplay:10.37,2013-03-13 14:14:00,
2013-03-13 10:19:00,42.5,36.4,29.86,SW,229,4.6,4.6,79,0.00,CLR,,0.00,WeatherDisplay:10.37,2013-03-13 14:19:00,
2013-03-13 10:24:00,42.7,35.3,29.86,WNW,300,4.0,4.0,75,0.00,CLR,,0.00,WeatherDisplay:10.37,2013-03-13 14:24:00,
2013-03-13 10:29:00,42.7,35.3,29.86,West,263,5.0,5.0,75,0.00,CLR,,0.00,WeatherDisplay:10.37,2013-03-13 14:29:00,
2013-03-13 10:34:00,42.9,36.5,29.86,West,275,3.5,3.5,78,0.00,CLR,,0.00,WeatherDisplay:10.37,2013-03-13 14:34:00,
2013-03-13 10:39:00,43.4,36.0,29.86,WSW,241,9.2,9.2,75,0.00,CLR,,0.00,WeatherDisplay:10.37,2013-03-13 14:39:00,
2013-03-13 10:44:00,43.6,35.5,29.86,WSW,248,5.8,5.8,73,0.00,CLR,,0.00,WeatherDisplay:10.37,2013-03-13 14:44:00,
2013-03-13 10:49:00,44.2,36.1,29.85,SW,236,6.9,6.9,73,0.00,CLR,,0.00,WeatherDisplay:10.37,2013-03-13 14:49:00,
2013-03-13 10:54:00,44.2,35.4,29.85,NNE,15,9.2,9.2,71,0.00,CLR,,0.00,WeatherDisplay:10.37,2013-03-13 14:54:00,
2013-03-13 10:59:00,44.3,36.2,29.86,NW,307,5.8,5.8,73,0.00,CLR,,0.00,WeatherDisplay:10.37,2013-03-13 14:59:00,
2013-03-13 11:04:00,44.9,36.8,29.86,WNW,299,8.1,8.1,73,0.00,SCT,,0.00,WeatherDisplay:10.37,2013-03-13 15:04:00,
2013-03-13 11:09:00,45.0,35.8,29.85,West,273,9.2,9.2,70,0.00,SCT,,0.00,WeatherDisplay:10.37,2013-03-13 15:09:00,
2013-03-13 11:14:00,45.0,35.8,29.85,WSW,247,9.2,9.2,70,0.00,SCT,,0.00,WeatherDisplay:10.37,2013-03-13 15:14:00,
2013-03-13 11:19:00,45.2,36.0,29.85,West,263,3.5,3.5,70,0.00,SCT,,0.00,WeatherDisplay:10.37,2013-03-13 15:19:00,
2013-03-13 11:24:00,45.5,36.3,29.85,WNW,286,10.4,10.4,70,0.00,SCT,,0.00,WeatherDisplay:10.37,2013-03-13 15:24:00,
2013-03-13 11:29:00,45.5,34.4,29.85,NE,51,4.0,4.0,65,0.00,SCT,,0.00,WeatherDisplay:10.37,2013-03-13 15:29:00,
2013-03-13 11:34:00,45.6,35.6,29.84,NE,43,9.2,9.2,68,0.00,SCT,,0.00,WeatherDisplay:10.37,2013-03-13 15:34:00,
2013-03-13 11:39:00,45.8,34.7,29.85,WSW,250,7.0,7.0,65,0.00,SCT,,0.00,WeatherDisplay:10.37,2013-03-13 15:39:00,
2013-03-13 11:44:00,45.9,35.2,29.84,NW,305,5.0,5.0,66,0.00,SCT,,0.00,WeatherDisplay:10.37,2013-03-13 15:44:00,
2013-03-13 11:50:00,46.1,35.0,29.84,NW,305,5.0,7.0,65,0.00,CLR,,0.00,WeatherDisplay:10.37,2013-03-13 15:50:00,
2013-03-13 11:53:00,45.8,34.7,29.84,NW,325,3.5,3.5,65,0.00,SCT,,0.00,WeatherDisplay:10.37,2013-03-13 15:53:00,
2013-03-13 11:58:00,45.1,34.0,29.84,NNE,15,3.5,3.5,65,0.00,SCT,,0.00,WeatherDisplay:10.37,2013-03-13 15:58:00,
2013-03-13 12:03:00,45.0,34.3,29.84,NNW,333,5.8,5.8,66,0.00,SCT,,0.00,WeatherDisplay:10.37,2013-03-13 16:03:00,
2013-03-13 12:07:00,45.1,34.0,29.84,SSW,206,10.0,10.0,65,0.00,SCT,,0.00,WeatherDisplay:10.37,2013-03-13 16:07:00,
2013-03-13 12:08:00,45.1,34.0,29.84,SSW,206,10.0,10.0,65,0.00,SCT,,0.00,WeatherDisplay:10.37,2013-03-13 16:08:00,
2013-03-13 12:13:00,45.1,34.0,29.84,SSW,206,10.0,10.0,65,0.00,SCT,,0.00,WeatherDisplay:10.37,2013-03-13 16:13:00,
2013-03-13 13:06:00,45.1,34.0,29.84,SSW,206,10.0,10.0,65,0.00,SCT,,0.00,WeatherDisplay:10.37,2013-03-13 17:06:00,
2013-03-13 13:11:00,45.1,34.0,29.84,SSW,206,10.0,10.0,65,0.00,SCT,,0.00,WeatherDisplay:10.37,2013-03-13 17:11:00,
2013-03-13 18:48:00,45.4,28.8,29.80,NW,309,2.3,2.3,52,0.00,SCT,,0.00,WeatherDisplay:10.37,2013-03-13 22:48:00,
2013-03-13 18:53:00,45.3,29.6,29.80,NW,305,2.3,2.3,54,0.00,BKN,,0.00,WeatherDisplay:10.37,2013-03-13 22:53:00,
2013-03-13 18:58:00,45.0,28.9,29.81,WNW,299,4.6,4.6,53,0.00,BKN,,0.00,WeatherDisplay:10.37,2013-03-13 22:58:00,
2013-03-13 19:03:00,44.8,29.2,29.81,NW,320,5.8,5.8,54,0.00,SCT,,0.00,WeatherDisplay:10.37,2013-03-13 23:03:00,
2013-03-13 19:08:00,44.5,29.3,29.81,West,271,5.0,5.0,55,0.00,SCT,,0.00,WeatherDisplay:10.37,2013-03-13 23:08:00,
2013-03-13 19:13:00,44.3,30.0,29.81,WSW,241,4.6,4.6,57,0.00,SCT,,0.00,WeatherDisplay:10.37,2013-03-13 23:13:00,
2013-03-13 19:18:00,44.1,30.3,29.82,WNW,295,4.6,4.6,58,0.00,SCT,,0.00,WeatherDisplay:10.37,2013-03-13 23:18:00,
2013-03-13 19:23:00,43.7,30.7,29.82,North,355,9.2,9.2,60,0.00,SCT,,0.00,WeatherDisplay:10.37,2013-03-13 23:23:00,
2013-03-13 19:28:00,42.5,32.3,29.83,WNW,294,10.4,10.4,67,0.00,SCT,,0.00,WeatherDisplay:10.37,2013-03-13 23:28:00,
2013-03-13 19:33:00,41.4,32.7,29.83,North,11,13.8,13.8,71,0.00,SCT,,0.00,WeatherDisplay:10.37,2013-03-13 23:33:00,
2013-03-13 19:38:00,40.7,32.7,29.83,North,5,6.9,6.9,73,0.00,SCT,,0.00,WeatherDisplay:10.37,2013-03-13 23:38:00,
2013-03-13 19:43:00,40.2,32.9,29.83,NNW,335,9.2,9.2,75,0.00,SCT,,0.00,WeatherDisplay:10.37,2013-03-13 23:43:00,
2013-03-13 19:48:00,39.9,32.9,29.83,WNW,301,5.8,5.8,76,0.00,SCT,,0.00,WeatherDisplay:10.37,2013-03-13 23:48:00,
2013-03-13 19:53:00,39.6,33.0,29.83,WNW,289,6.9,6.9,77,0.00,SCT,,0.00,WeatherDisplay:10.37,2013-03-13 23:53:00,
2013-03-13 19:54:00,39.6,33.0,29.83,NW,309,5.8,5.8,77,0.00,SCT,,0.00,WeatherDisplay:10.37,2013-03-13 23:54:00,
2013-03-13 19:58:00,39.6,33.0,29.83,NW,309,5.8,5.8,77,0.00,SCT,,0.00,WeatherDisplay:10.37,2013-03-13 23:58:00,
2013-03-13 20:03:00,39.6,33.0,29.83,NW,309,5.8,5.8,77,0.00,SCT,,0.00,WeatherDisplay:10.37,2013-03-14 00:03:00,
2013-03-13 20:53:00,39.6,33.0,29.83,NW,309,5.8,5.8,77,0.00,SCT,,0.00,WeatherDisplay:10.37,2013-03-14 00:53:00,
2013-03-13 20:58:00,39.6,33.0,29.83,NW,309,5.8,5.8,77,0.00,SCT,,0.00,WeatherDisplay:10.37,2013-03-14 00:58:00,
2013-03-13 22:37:00,37.9,31.7,29.86,WNW,291,2.3,2.3,78,0.00,SCT,,0.00,WeatherDisplay:10.37,2013-03-14 02:37:00,
2013-03-13 22:42:00,37.9,31.7,29.86,WNW,288,3.5,3.5,78,0.00,SCT,,0.00,WeatherDisplay:10.37,2013-03-14 02:42:00,
2013-03-13 22:47:00,37.9,31.7,29.86,WNW,288,2.3,2.3,78,0.00,SCT,,0.00,WeatherDisplay:10.37,2013-03-14 02:47:00,
2013-03-13 22:52:00,37.9,31.3,29.86,WNW,295,2.3,2.3,77,0.00,SCT,,0.00,WeatherDisplay:10.37,2013-03-14 02:52:00,
2013-03-13 22:57:00,37.9,31.3,29.86,WNW,284,0.0,0.0,77,0.00,SCT,,0.00,WeatherDisplay:10.37,2013-03-14 02:57:00,
2013-03-13 23:02:00,37.8,31.2,29.86,NW,320,3.5,3.5,77,0.00,FEW,,0.00,WeatherDisplay:10.37,2013-03-14 03:02:00,
2013-03-13 23:07:00,37.8,31.2,29.86,SW,227,1.0,1.0,77,0.00,FEW,,0.00,WeatherDisplay:10.37,2013-03-14 03:07:00,
2013-03-13 23:12:00,37.7,31.1,29.86,SW,227,0.0,0.0,77,0.00,FEW,,0.00,WeatherDisplay:10.37,2013-03-14 03:12:00,
2013-03-13 23:18:00,37.5,30.9,29.86,SW,229,2.0,2.0,77,0.00,FEW,,0.00,WeatherDisplay:10.37,2013-03-14 03:18:00,
2013-03-13 23:23:00,37.4,30.8,29.86,SW,229,0.0,0.0,77,0.00,FEW,,0.00,WeatherDisplay:10.37,2013-03-14 03:23:00,
2013-03-13 23:28:00,37.2,30.7,29.86,SW,229,0.0,0.0,77,0.00,FEW,,0.00,WeatherDisplay:10.37,2013-03-14 03:28:00,
2013-03-13 23:33:00,37.1,30.6,29.86,SW,229,0.0,0.0,77,0.00,FEW,,0.00,WeatherDisplay:10.37,2013-03-14 03:33:00,
2013-03-13 23:47:00,36.8,29.9,29.86,WNW,292,2.0,2.1,76,0.00,FEW,,0.00,WeatherDisplay:10.37,2013-03-14 03:47:00,
2013-03-13 23:53:00,36.8,29.9,29.86,WNW,298,0.0,0.2,76,0.00,FEW,,0.00,WeatherDisplay:10.37,2013-03-14 03:53:00,